Time;durP1;ratioP1;P1;durP2;ratioP2;P2;SDS_P1;SDS_P2;PMS_P1;PMS_P2;Temp;Humidity;BMP_temperature;BMP_pressure;BME280_temperature;BME280_humidity;BME280_pressure;Samples;Min_cycle;Max_cycle;Signal;HPM_P1;HPM_P2
2022/09/16 00:01:22;;;;;;;10.38;2.75;;;;;;;22.30;66.99;99645.91;5052196;28;20053;-82
2022/09/16 00:04:07;;;;;;;;;;;;;;;22.44;69.06;99640.13;5040685;28;20044;-81
2022/09/16 00:06:51;;;;;;;17.53;3.60;;;;;;;22.50;65.98;99655.09;5041270;28;19913;-82
2022/09/16 00:09:37;;;;;;;13.55;3.95;;;;;;;22.35;66.55;99653.75;5040762;28;20048;-82
2022/09/16 00:12:21;;;;;;;15.82;3.95;;;;;;;22.47;66.25;99662.22;5052358;28;20076;-81
2022/09/16 00:15:08;;;;;;;13.57;3.30;;;;;;;22.54;65.83;99675.97;5060070;28;20048;-81
2022/09/16 00:17:53;;;;;;;16.55;3.47;;;;;;;22.50;65.83;99682.78;5059994;28;20055;-81
2022/09/16 00:20:48;;;;;;;16.92;3.30;;;;;;;21.88;68.41;99677.78;5059818;28;20044;-81
2022/09/16 00:23:34;;;;;;;9.13;2.97;;;;;;;21.59;70.00;99669.03;5039681;28;20056;-81
2022/09/16 00:26:19;;;;;;;9.70;3.67;;;;;;;21.55;69.89;99671.06;5040490;28;20044;-82
2022/09/16 00:29:04;;;;;;;15.38;3.80;;;;;;;21.52;69.80;99669.16;5040930;28;20052;-82
2022/09/16 00:31:49;;;;;;;11.13;2.95;;;;;;;22.03;68.02;99673.63;5046540;28;20040;-81
2022/09/16 00:34:33;;;;;;;11.73;3.75;;;;;;;22.31;66.98;99669.63;5061446;28;20523;-81
2022/09/16 00:37:18;;;;;;;14.23;3.00;;;;;;;22.12;67.42;99669.13;5064146;28;20064;-81
2022/09/16 00:40:04;;;;;;;13.45;3.00;;;;;;;21.90;67.68;99673.38;5060606;28;20048;-81
2022/09/16 00:42:49;;;;;;;12.48;3.03;;;;;;;21.80;67.65;99674.28;5051121;28;20049;-82
2022/09/16 00:45:33;;;;;;;;;;;;;;;22.08;66.20;99685.03;5039833;28;20064;-82
2022/09/16 00:48:21;;;;;;;12.20;3.08;;;;;;;22.15;65.94;99682.13;5039167;28;19917;-82
2022/09/16 00:51:10;;;;;;;6.63;2.92;;;;;;;22.00;66.07;99680.78;5039870;28;20044;-81
2022/09/16 00:54:02;;;;;;;17.73;4.13;;;;;;;22.07;66.59;99680.69;5053645;28;20048;-81
2022/09/16 00:56:52;;;;;;;19.33;4.22;;;;;;;22.20;65.52;99685.66;5059595;28;20044;-81
2022/09/16 00:59:42;;;;;;;7.70;2.80;;;;;;;22.28;65.17;99676.81;5059596;28;20040;-81
2022/09/16 01:02:27;;;;;;;12.18;3.55;;;;;;;22.21;65.58;99682.44;5059483;28;20515;-81
2022/09/16 01:05:24;;;;;;;13.45;3.40;;;;;;;22.27;65.46;99682.75;5040047;28;20060;-81
2022/09/16 01:08:09;;;;;;;12.73;4.30;;;;;;;22.12;65.78;99691.28;5039615;28;20072;-81
2022/09/16 01:10:54;;;;;;;12.30;3.75;;;;;;;21.96;66.22;99690.31;5040134;28;20048;-81
2022/09/16 01:13:41;;;;;;;15.35;3.38;;;;;;;21.89;66.41;99677.31;5060977;28;20048;-81
2022/09/16 01:16:33;;;;;;;12.90;3.80;;;;;;;21.96;65.86;99674.50;5059622;28;20043;-80
2022/09/16 01:19:43;;;;;;;11.07;4.38;;;;;;;21.77;66.38;99684.22;5059321;28;20048;-81
2022/09/16 01:22:39;;;;;;;14.05;5.43;;;;;;;21.85;66.29;99681.34;5049398;28;20048;-82
2022/09/16 01:25:53;;;;;;;9.98;3.33;;;;;;;21.86;65.80;99680.16;5043302;28;20052;-81
2022/09/16 01:28:58;;;;;;;9.18;3.35;;;;;;;22.04;65.35;99681.53;5039159;28;20052;-81
2022/09/16 01:32:13;;;;;;;14.20;3.63;;;;;;;21.66;66.84;99685.56;5041674;28;20075;-81
2022/09/16 01:35:15;;;;;;;9.07;4.05;;;;;;;21.94;65.46;99685.19;5059161;28;20044;-82
2022/09/16 01:38:03;;;;;;;9.73;3.40;;;;;;;21.60;66.13;99681.69;5059142;28;20044;-82
2022/09/16 01:41:13;;;;;;;11.10;3.85;;;;;;;21.64;66.22;99682.41;5058780;28;20059;-82
2022/09/16 01:44:18;;;;;;;10.63;4.10;;;;;;;21.88;65.69;99680.53;5041079;28;20060;-82
2022/09/16 01:47:21;;;;;;;;;;;;;;;21.90;66.03;99681.66;5040193;28;20044;-82
2022/09/16 01:50:23;;;;;;;14.90;4.35;;;;;;;21.90;65.81;99675.34;5038332;28;19913;-81
2022/09/16 01:53:11;;;;;;;11.48;4.68;;;;;;;21.84;65.97;99688.88;5048219;28;20059;-82
2022/09/16 01:56:10;;;;;;;7.32;4.32;;;;;;;21.51;67.54;99682.19;5057350;28;20045;-82
2022/09/16 01:59:19;;;;;;;12.80;4.88;;;;;;;21.24;69.17;99681.31;5058482;28;20048;-82
2022/09/16 02:02:25;;;;;;;8.85;4.93;;;;;;;21.09;70.04;99680.66;5059019;28;20048;-82
2022/09/16 02:05:23;;;;;;;14.60;5.80;;;;;;;20.88;71.08;99678.91;5039440;28;20049;-82
2022/09/16 02:08:13;;;;;;;16.23;6.40;;;;;;;20.95;71.56;99688.31;5039070;28;20040;-81
2022/09/16 02:11:02;;;;;;;17.77;6.22;;;;;;;20.94;71.26;99684.78;5038778;28;20404;-81
2022/09/16 02:13:59;;;;;;;19.02;6.00;;;;;;;21.31;69.20;99673.75;5047381;28;20040;-82
2022/09/16 02:16:52;;;;;;;15.20;5.45;;;;;;;21.53;68.58;99684.56;5058630;28;20052;-82
2022/09/16 02:19:51;;;;;;;10.45;4.82;;;;;;;21.62;66.41;99673.75;5061164;28;20056;-81
2022/09/16 02:22:42;;;;;;;9.48;4.30;;;;;;;21.52;66.88;99671.91;5058661;28;20044;-81
2022/09/16 02:25:32;;;;;;;26.42;5.13;;;;;;;21.42;67.19;99672.84;5037700;28;20400;-81
2022/09/16 02:28:25;;;;;;;11.35;5.78;;;;;;;20.99;68.93;99664.97;5037132;28;20047;-81
2022/09/16 02:31:12;;;;;;;13.75;4.78;;;;;;;21.12;69.23;99656.97;5041173;28;20060;-82
2022/09/16 02:34:10;;;;;;;23.40;4.80;;;;;;;21.21;68.56;99654.50;5041709;28;20049;-83
2022/09/16 02:37:00;;;;;;;15.07;5.47;;;;;;;21.07;69.08;99649.91;5057985;28;20040;-82
2022/09/16 02:39:49;;;;;;;17.33;5.47;;;;;;;21.29;68.28;99656.78;5061834;28;20048;-82
2022/09/16 02:42:33;;;;;;;12.70;5.05;;;;;;;21.13;69.07;99653.75;5059683;28;20043;-81
2022/09/16 02:45:25;;;;;;;19.15;6.32;;;;;;;20.93;70.09;99658.31;5077411;28;20507;-81
2022/09/16 02:48:26;;;;;;;15.63;4.75;;;;;;;21.13;68.45;99655.78;5050100;28;20064;-81
2022/09/16 02:51:17;;;;;;;24.77;6.72;;;;;;;21.00;69.29;99661.03;5059462;28;20523;-82
2022/09/16 02:54:13;;;;;;;11.25;3.55;;;;;;;21.42;71.23;99653.47;5042561;28;20044;-82
2022/09/16 02:56:59;;;;;;;8.55;4.32;;;;;;;21.81;69.08;99664.81;5042138;28;20044;-83
2022/09/16 02:59:44;;;;;;;15.55;4.05;;;;;;;22.08;67.62;99662.88;5041148;28;20052;-81
2022/09/16 03:05:27;;;;;;;12.63;4.60;;;;;;;22.54;65.32;99670.44;4954434;28;20062;-77
2022/09/16 03:08:12;;;;;;;15.73;4.32;;;;;;;22.13;65.93;99659.63;4955839;29;20102;-79
2022/09/16 03:11:07;;;;;;;13.45;5.57;;;;;;;21.61;67.56;99652.81;4970587;28;20058;-79
2022/09/16 03:14:19;;;;;;;20.20;5.65;;;;;;;21.37;69.48;99657.47;4958809;28;20042;-78
2022/09/16 03:17:42;;;;;;;16.08;4.63;;;;;;;21.88;67.74;99658.38;4956729;29;20058;-80
2022/09/16 03:20:40;;;;;;;14.95;6.35;;;;;;;21.42;68.87;99654.25;4956964;29;20046;-79
2022/09/16 03:23:37;;;;;;;22.52;5.97;;;;;;;21.37;68.89;99649.19;4956156;28;20051;-78
2022/09/16 03:26:31;;;;;;;12.98;4.68;;;;;;;21.99;67.92;99645.22;4945073;28;20505;-77
2022/09/16 03:29:37;;;;;;;11.93;4.05;;;;;;;22.32;66.59;99649.81;4957559;28;20066;-78
2022/09/16 03:32:29;;;;;;;13.98;4.57;;;;;;;22.49;66.03;99648.75;4957040;29;20124;-79
2022/09/16 03:35:24;;;;;;;11.00;5.32;;;;;;;22.08;65.79;99643.47;4955946;29;20055;-81
2022/09/16 03:38:11;;;;;;;14.65;5.65;;;;;;;21.94;65.78;99648.44;4957157;29;20054;-81
2022/09/16 03:40:56;;;;;;;14.07;5.57;;;;;;;21.95;66.69;99647.22;4959874;29;20054;-81
2022/09/16 03:43:52;;;;;;;24.23;6.15;;;;;;;21.65;67.90;99654.34;4957456;28;20054;-79
2022/09/16 03:46:37;;;;;;;23.67;5.10;;;;;;;21.45;67.87;99647.88;4955115;28;20047;-77
2022/09/16 03:49:21;;;;;;;12.02;6.10;;;;;;;21.62;66.81;99644.13;4956199;28;20054;-77
2022/09/16 03:52:07;;;;;;;12.68;5.95;;;;;;;21.64;67.40;99640.91;4958434;28;20046;-79
2022/09/16 03:54:51;;;;;;;9.05;4.65;;;;;;;21.47;67.98;99647.47;4956358;28;20050;-80
2022/09/16 03:57:37;;;;;;;12.23;4.43;;;;;;;21.42;66.70;99653.47;4955721;29;20042;-79
2022/09/16 04:00:22;;;;;;;10.70;5.78;;;;;;;21.32;66.78;99658.72;4955726;29;20510;-77
2022/09/16 04:03:06;;;;;;;14.40;5.00;;;;;;;21.44;66.95;99651.06;4956162;28;20050;-79
2022/09/16 04:05:55;;;;;;;21.77;6.63;;;;;;;21.55;66.52;99637.88;4946219;29;20054;-79
2022/09/16 04:08:40;;;;;;;13.52;5.88;;;;;;;21.49;66.78;99645.06;4957248;28;20046;-79
2022/09/16 04:11:28;;;;;;;16.13;6.35;;;;;;;21.62;66.50;99646.09;4948624;29;20092;-78
2022/09/16 04:14:13;;;;;;;23.75;6.90;;;;;;;21.58;66.83;99656.44;4957344;28;20058;-76
2022/09/16 04:16:58;;;;;;;8.38;3.72;;;;;;;21.72;67.58;99647.94;4957773;28;20054;-77
2022/09/16 04:19:43;;;;;;;13.80;4.20;;;;;;;21.84;67.06;99652.13;4954408;29;20054;-78
2022/09/16 04:22:29;;;;;;;13.35;4.90;;;;;;;21.36;67.16;99644.84;4955071;29;20066;-79
2022/09/16 04:25:14;;;;;;;22.88;5.53;;;;;;;21.15;68.12;99642.31;4957685;28;20097;-79
2022/09/16 04:27:59;;;;;;;12.82;4.65;;;;;;;21.29;68.42;99645.72;4961220;28;20049;-77
2022/09/16 04:30:44;;;;;;;13.18;5.45;;;;;;;21.11;67.28;99642.34;4955812;28;20053;-77
2022/09/16 04:33:30;;;;;;;;;;;;;;;21.18;67.98;99645.03;4949455;28;20510;-77
2022/09/16 04:36:15;;;;;;;;;;;;;;;21.36;66.59;99644.06;4955833;28;19914;-76
2022/09/16 04:38:59;;;;;;;;;;;;;;;21.16;69.51;99643.91;4956078;29;20305;-76
2022/09/16 04:41:44;;;;;;;12.48;4.72;;;;;;;21.27;68.14;99637.06;4958340;28;19922;-79
2022/09/16 04:44:29;;;;;;;15.07;4.80;;;;;;;21.31;66.27;99643.31;4955196;28;20530;-79
2022/09/16 04:47:13;;;;;;;11.80;3.75;;;;;;;21.37;69.02;99645.63;4959684;28;20050;-79
2022/09/16 04:49:58;;;;;;;6.78;3.50;;;;;;;21.85;67.14;99654.47;4954228;29;20050;-79
2022/09/16 04:52:43;;;;;;;11.98;5.45;;;;;;;21.97;65.81;99655.91;4955453;28;20049;-80
2022/09/16 04:55:27;;;;;;;21.42;6.50;;;;;;;21.80;64.81;99668.75;4948843;29;20054;-78
2022/09/16 04:58:13;;;;;;;14.38;5.07;;;;;;;21.85;67.08;99660.00;4959235;28;20046;-76
2022/09/16 05:01:11;;;;;;;13.05;5.10;;;;;;;21.57;67.26;99657.63;4957966;28;20441;-79
2022/09/16 05:03:58;;;;;;;16.58;5.60;;;;;;;21.31;67.28;99670.97;4958941;29;20050;-80
2022/09/16 05:06:43;;;;;;;16.05;6.10;;;;;;;20.68;70.55;99668.84;4957985;29;20058;-77
2022/09/16 05:09:28;;;;;;;14.25;5.43;;;;;;;20.78;70.88;99670.72;4956997;29;20042;-78
2022/09/16 05:12:13;;;;;;;21.42;5.45;;;;;;;21.23;68.33;99677.78;4958849;29;20065;-79
2022/09/16 05:14:58;;;;;;;13.05;5.47;;;;;;;21.29;67.96;99673.38;4957858;28;20050;-79
2022/09/16 05:17:42;;;;;;;;;;;;;;;21.07;68.49;99677.53;4958902;28;20098;-77
2022/09/16 05:20:27;;;;;;;10.00;4.85;;;;;;;21.18;68.21;99685.75;4957085;28;19918;-80
2022/09/16 05:23:11;;;;;;;12.98;5.68;;;;;;;21.53;66.69;99679.81;4958515;29;20050;-79
2022/09/16 05:26:03;;;;;;;16.80;5.03;;;;;;;21.81;66.10;99686.16;4956854;28;20054;-79
2022/09/16 05:28:49;;;;;;;20.80;5.55;;;;;;;21.71;65.63;99679.56;4957099;29;20050;-78
2022/09/16 05:31:37;;;;;;;22.15;5.10;;;;;;;21.86;66.21;99677.38;4957857;29;20051;-80
2022/09/16 05:34:27;;;;;;;7.72;4.10;;;;;;;22.26;64.21;99681.19;4957345;29;20046;-76
2022/09/16 05:37:12;;;;;;;25.10;6.50;;;;;;;22.23;64.32;99680.03;4957597;29;20062;-79
2022/09/16 05:39:56;;;;;;;7.57;3.47;;;;;;;22.29;64.13;99672.03;4957472;29;20054;-77
2022/09/16 05:42:41;;;;;;;13.38;4.70;;;;;;;22.43;63.27;99678.16;4957575;28;20054;-78
2022/09/16 05:45:26;;;;;;;17.80;4.35;;;;;;;22.35;63.46;99676.66;4962824;28;20062;-79
2022/09/16 05:48:10;;;;;;;10.63;4.45;;;;;;;22.36;63.32;99675.47;4958153;29;20050;-79
2022/09/16 05:51:01;;;;;;;10.98;4.72;;;;;;;22.27;64.00;99678.00;4956295;29;20070;-79
2022/09/16 05:53:47;;;;;;;11.82;3.97;;;;;;;22.12;65.06;99685.75;4954870;28;20043;-78
2022/09/16 05:56:32;;;;;;;20.55;5.28;;;;;;;22.31;64.48;99680.69;4953626;29;20046;-78
2022/09/16 05:59:17;;;;;;;14.45;4.50;;;;;;;22.65;63.14;99684.13;4955757;29;20046;-79
2022/09/16 06:02:02;;;;;;;15.55;4.68;;;;;;;22.79;62.79;99670.03;4954310;28;20067;-79
2022/09/16 06:04:47;;;;;;;24.48;5.22;;;;;;;22.89;62.76;99671.06;4956852;28;20533;-80
2022/09/16 06:07:32;;;;;;;15.38;5.18;;;;;;;22.94;62.79;99662.25;4950040;29;20054;-80
2022/09/16 06:10:17;;;;;;;39.20;6.13;;;;;;;23.04;62.85;99661.25;4969551;28;20042;-78
2022/09/16 06:13:02;;;;;;;18.33;5.05;;;;;;;23.21;62.56;99660.13;4961590;28;20049;-79
2022/09/16 06:15:53;;;;;;;24.73;5.88;;;;;;;23.38;63.00;99660.97;4958424;29;20446;-75
2022/09/16 06:18:37;;;;;;;25.60;5.90;;;;;;;23.28;63.34;99668.31;4957881;28;20050;-78
2022/09/16 06:21:23;;;;;;;24.60;6.32;;;;;;;23.29;63.71;99671.88;4958071;29;20066;-79
2022/09/16 06:24:07;;;;;;;29.55;5.70;;;;;;;23.46;63.03;99668.00;4953278;28;20062;-80
2022/09/16 06:26:52;;;;;;;25.60;7.32;;;;;;;23.46;63.39;99670.78;4956133;29;20406;-78
2022/09/16 06:29:37;;;;;;;27.90;6.18;;;;;;;23.49;63.76;99669.13;4951091;29;20513;-78
2022/09/16 06:32:21;;;;;;;27.08;6.03;;;;;;;23.37;63.86;99676.06;4958759;29;20050;-78
2022/09/16 06:35:06;;;;;;;15.00;5.20;;;;;;;23.43;63.88;99677.13;4958507;29;20094;-80
2022/09/16 06:37:52;;;;;;;20.30;6.00;;;;;;;23.56;63.10;99669.75;4959276;29;20065;-79
2022/09/16 06:40:37;;;;;;;18.95;6.18;;;;;;;23.72;62.78;99671.81;4959882;29;20064;-79
2022/09/16 06:43:21;;;;;;;;;;;;;;;23.92;62.04;99669.78;4959505;28;20418;-76
2022/09/16 06:46:12;;;;;;;23.80;7.43;;;;;;;24.01;61.90;99672.75;4961135;29;19923;-81
2022/09/16 06:48:57;;;;;;;18.90;6.00;;;;;;;24.01;62.14;99678.28;4957982;29;20063;-78
2022/09/16 06:51:42;;;;;;;19.00;6.40;;;;;;;23.95;62.43;99676.44;4957755;29;20509;-77
2022/09/16 06:54:27;;;;;;;24.13;5.85;;;;;;;23.77;62.65;99674.09;4958001;29;20043;-80
2022/09/16 06:57:12;;;;;;;22.83;5.80;;;;;;;23.71;62.86;99676.56;4959814;29;20054;-79
2022/09/16 06:59:56;;;;;;;21.90;6.63;;;;;;;23.86;63.00;99679.81;4955654;28;20058;-80
2022/09/16 07:02:41;;;;;;;19.27;6.00;;;;;;;24.05;62.05;99678.19;4967207;28;20426;-78
2022/09/16 07:05:26;;;;;;;17.23;5.30;;;;;;;24.00;62.24;99670.38;4960643;29;20042;-79
2022/09/16 07:08:11;;;;;;;25.08;5.32;;;;;;;24.17;61.63;99678.34;4957300;29;20062;-79
2022/09/16 07:10:59;;;;;;;19.23;4.88;;;;;;;24.30;60.91;99672.88;4958022;29;20124;-78
2022/09/16 07:13:48;;;;;;;9.38;3.70;;;;;;;24.31;60.52;99674.44;4959265;28;20054;-79
2022/09/16 07:16:32;;;;;;;18.70;4.45;;;;;;;24.27;60.54;99668.19;4958515;29;20128;-79
2022/09/16 07:19:17;;;;;;;19.48;4.03;;;;;;;24.43;60.45;99667.41;4957482;29;20054;-78
2022/09/16 07:22:02;;;;;;;9.80;4.55;;;;;;;24.36;60.10;99662.81;4956969;28;20044;-78
2022/09/16 07:24:47;;;;;;;10.52;3.47;;;;;;;24.10;61.15;99658.25;4958861;29;20054;-80
2022/09/16 07:27:31;;;;;;;20.27;4.40;;;;;;;24.29;60.48;99666.53;4955272;29;20053;-80
2022/09/16 07:30:16;;;;;;;14.73;3.40;;;;;;;24.70;58.99;99677.03;4957570;29;20054;-80
2022/09/16 07:33:01;;;;;;;10.60;3.53;;;;;;;24.86;58.65;99675.44;4960244;28;20070;-77
2022/09/16 07:35:46;;;;;;;13.57;4.13;;;;;;;25.20;57.05;99669.38;4959256;29;20399;-79
2022/09/16 07:38:31;;;;;;;;;;;;;;;25.46;55.69;99669.03;4959242;29;20054;-75
2022/09/16 07:41:17;;;;;;;;;;;;;;;25.72;55.81;99675.44;4958279;29;19915;-76
2022/09/16 07:44:03;;;;;;;12.32;4.03;;;;;;;25.82;54.95;99673.56;4956703;29;19918;-79
2022/09/16 07:46:49;;;;;;;7.95;3.08;;;;;;;26.07;53.66;99684.72;4957018;29;20050;-79
2022/09/16 07:49:34;;;;;;;11.60;3.15;;;;;;;26.13;54.27;99691.31;4950162;29;20050;-78
2022/09/16 07:52:19;;;;;;;;;;;;;;;26.27;53.13;99693.69;4955865;28;20050;-77
2022/09/16 07:55:04;;;;;;;14.32;2.95;;;;;;;26.06;53.55;99694.31;4951738;29;19926;-80
2022/09/16 07:57:49;;;;;;;13.20;3.38;;;;;;;26.13;53.27;99696.88;4956048;29;20050;-78
2022/09/16 08:00:33;;;;;;;10.95;3.50;;;;;;;25.88;54.30;99694.88;4949849;29;20054;-78
2022/09/16 08:03:18;;;;;;;16.70;3.40;;;;;;;26.01;53.90;99702.47;4957316;28;20513;-78
2022/09/16 08:06:06;;;;;;;12.07;3.17;;;;;;;26.14;53.34;99695.66;4955098;29;20075;-77
2022/09/16 08:08:52;;;;;;;16.98;3.00;;;;;;;25.75;55.27;99698.88;4954926;29;20061;-77
2022/09/16 08:11:37;;;;;;;18.23;4.07;;;;;;;25.79;54.83;99699.53;4954515;29;20050;-77
2022/09/16 08:14:21;;;;;;;6.43;2.65;;;;;;;26.10;53.87;99699.78;4949449;29;20050;-76
2022/09/16 08:17:07;;;;;;;14.45;4.80;;;;;;;26.18;53.38;99704.69;4960837;29;20170;-80
2022/09/16 08:19:51;;;;;;;9.88;3.00;;;;;;;26.38;52.65;99693.34;4956341;29;20065;-76
2022/09/16 08:22:36;;;;;;;10.20;3.10;;;;;;;26.11;52.85;99690.97;4958149;28;20046;-79
2022/09/16 08:25:21;;;;;;;12.75;3.22;;;;;;;25.98;53.00;99690.19;4955860;29;20430;-78
2022/09/16 08:28:10;;;;;;;;;;;;;;;26.34;52.56;99690.69;4960821;28;20050;-77
2022/09/16 08:30:59;;;;;;;9.05;2.58;;;;;;;26.51;52.06;99690.56;4957697;28;20374;-78
2022/09/16 08:33:44;;;;;;;12.05;3.45;;;;;;;26.53;52.09;99683.28;4954812;28;20147;-79
2022/09/16 08:36:29;;;;;;;15.68;3.22;;;;;;;26.60;52.01;99679.47;4959831;28;20066;-78
2022/09/16 08:39:14;;;;;;;13.15;3.05;;;;;;;26.61;52.05;99683.84;4955525;29;20055;-78
2022/09/16 08:42:01;;;;;;;10.25;3.60;;;;;;;26.87;51.09;99679.75;4955482;29;20050;-79
2022/09/16 08:44:59;;;;;;;11.27;2.70;;;;;;;27.14;50.81;99680.00;4953381;28;20047;-78
2022/09/16 08:48:07;;;;;;;10.32;2.70;;;;;;;26.90;51.47;99678.88;4950465;29;20050;-78
2022/09/16 08:50:52;;;;;;;15.82;2.72;;;;;;;27.41;49.84;99679.44;4951349;29;20051;-78
2022/09/16 08:53:42;;;;;;;15.10;2.25;;;;;;;28.26;47.76;99670.59;4955597;28;20058;-79
2022/09/16 08:56:31;;;;;;;11.93;3.25;;;;;;;28.47;46.57;99674.53;4955348;29;20051;-79
2022/09/16 08:59:22;;;;;;;13.60;3.45;;;;;;;28.57;46.73;99676.13;4955210;29;20251;-78
2022/09/16 09:02:39;;;;;;;8.15;2.70;;;;;;;28.17;48.04;99673.38;4954778;29;20046;-77
2022/09/16 09:05:50;;;;;;;29.05;3.83;;;;;;;30.51;42.65;99668.53;4997621;23;20058;-82
2022/09/16 09:08:53;;;;;;;109.88;6.00;;;;;;;34.59;34.38;99680.13;5009883;28;20068;-83
2022/09/16 09:11:38;;;;;;;129.27;7.70;;;;;;;38.40;28.55;99693.78;4975313;28;20045;-78
2022/09/16 09:14:48;;;;;;;21.90;3.38;;;;;;;39.38;26.44;99700.91;4990009;28;20046;-81
2022/09/16 09:17:46;;;;;;;9.10;2.53;;;;;;;41.68;23.88;99696.03;4994479;28;20053;-82
2022/09/16 09:21:02;;;;;;;12.55;2.42;;;;;;;42.66;22.40;99688.28;4991939;28;20544;-82
2022/09/16 09:24:05;;;;;;;16.98;3.03;;;;;;;43.43;20.95;99693.00;4975188;28;20049;-84
2022/09/16 09:26:58;;;;;;;11.07;2.17;;;;;;;43.95;20.34;99695.78;4978223;28;20049;-82
2022/09/16 09:29:56;;;;;;;19.13;3.28;;;;;;;37.55;28.14;99669.47;4978310;28;20046;-81
2022/09/16 09:32:50;;;;;;;14.20;3.50;;;;;;;34.23;33.15;99664.81;4976391;28;20517;-80
2022/09/16 09:35:46;;;;;;;13.02;3.35;;;;;;;32.19;37.88;99651.53;4992242;28;20038;-82
2022/09/16 09:38:56;;;;;;;20.98;3.88;;;;;;;30.53;41.18;99638.72;4987748;28;20045;-81
2022/09/16 09:41:50;;;;;;;16.67;3.75;;;;;;;29.47;44.09;99638.22;4997019;28;20050;-82
2022/09/16 09:44:51;;;;;;;18.42;3.22;;;;;;;28.76;46.05;99638.56;4992641;28;20050;-82
2022/09/16 09:47:45;;;;;;;10.77;3.50;;;;;;;28.48;46.82;99636.94;4994137;28;20413;-80
2022/09/16 09:50:40;;;;;;;8.60;2.40;;;;;;;28.54;46.68;99629.50;4995189;28;20049;-81
2022/09/16 09:53:38;;;;;;;20.80;3.20;;;;;;;28.09;48.43;99622.50;4993274;28;20061;-80
2022/09/16 09:56:29;;;;;;;13.27;4.32;;;;;;;27.56;49.85;99618.25;4997001;28;20046;-81
2022/09/16 09:59:25;;;;;;;22.40;5.65;;;;;;;27.35;50.37;99622.59;4993116;28;20406;-80
2022/09/16 10:02:16;;;;;;;24.08;6.20;;;;;;;27.46;49.94;99622.22;4991731;28;20056;-81
2022/09/16 10:05:01;;;;;;;80.38;8.95;;;;;;;27.56;49.52;99615.47;4991929;28;20045;-82
2022/09/16 10:07:46;;;;;;;33.03;5.63;;;;;;;27.69;49.49;99620.94;4983942;28;20057;-81
2022/09/16 10:10:33;;;;;;;24.20;4.40;;;;;;;27.64;50.04;99617.53;4980233;28;20418;-81
2022/09/16 10:13:19;;;;;;;19.65;3.60;;;;;;;27.67;49.85;99617.84;4994467;28;20041;-81
2022/09/16 10:16:17;;;;;;;23.15;4.43;;;;;;;27.50;50.82;99608.91;4997429;28;20057;-81
2022/09/16 10:19:22;;;;;;;14.32;3.58;;;;;;;27.41;50.98;99601.25;4992581;28;20532;-81
2022/09/16 10:22:26;;;;;;;24.85;4.50;;;;;;;27.50;50.77;99600.53;4975792;28;20446;-79
2022/09/16 10:25:25;;;;;;;22.17;4.97;;;;;;;27.39;51.09;99598.13;4981452;28;20041;-82
2022/09/16 10:28:23;;;;;;;15.70;3.25;;;;;;;27.45;50.59;99598.31;4994618;28;20057;-82
2022/09/16 10:31:09;;;;;;;14.63;4.00;;;;;;;27.46;51.06;99586.69;4992678;28;20065;-82
2022/09/16 10:33:55;;;;;;;13.68;4.75;;;;;;;27.17;51.74;99598.13;4996157;28;20054;-82
2022/09/16 10:36:40;;;;;;;17.85;3.75;;;;;;;27.21;51.43;99592.44;4993443;28;20046;-81
2022/09/16 10:39:27;;;;;;;14.68;2.85;;;;;;;27.15;51.71;99591.47;4990287;28;20061;-82
2022/09/16 10:42:22;;;;;;;13.38;3.35;;;;;;;27.02;51.70;99594.31;4991573;28;20046;-81
2022/09/16 10:45:14;;;;;;;;;;;;;;;27.04;51.58;99593.84;4975018;28;20049;-82
2022/09/16 10:48:03;;;;;;;8.90;3.38;;;;;;;27.35;51.16;99589.09;4982376;28;19918;-82
2022/09/16 10:50:53;;;;;;;17.05;4.47;;;;;;;27.39;50.60;99586.16;4993924;28;20065;-83
2022/09/16 10:53:44;;;;;;;23.98;4.47;;;;;;;27.65;50.38;99574.38;4994880;28;20045;-83
2022/09/16 10:56:45;;;;;;;17.23;3.58;;;;;;;27.80;49.59;99571.00;4991352;28;20405;-82
2022/09/16 10:59:29;;;;;;;10.88;3.67;;;;;;;27.76;49.68;99568.38;4994385;28;20157;-82
2022/09/16 11:02:25;;;;;;;15.45;3.60;;;;;;;27.87;49.38;99574.31;4997621;28;20057;-82
2022/09/16 11:05:31;;;;;;;16.98;4.25;;;;;;;27.74;48.91;99570.84;4992257;28;20042;-82
2022/09/16 11:08:28;;;;;;;14.43;4.07;;;;;;;27.71;49.82;99568.97;4997392;28;20061;-83
2022/09/16 11:11:29;;;;;;;24.40;5.65;;;;;;;27.76;49.65;99564.81;4999148;28;20065;-82
2022/09/16 11:14:41;;;;;;;22.90;5.43;;;;;;;27.92;48.92;99559.75;4994242;28;20049;-83
2022/09/16 11:17:36;;;;;;;14.52;2.78;;;;;;;28.08;48.55;99559.47;4978376;28;20050;-83
2022/09/16 11:20:56;;;;;;;;;;;;;;;27.98;48.84;99560.69;4988506;28;20054;-82
2022/09/16 11:23:40;;;;;;;9.70;2.10;;;;;;;27.63;49.87;99562.88;4997238;28;19914;-82
2022/09/16 11:26:43;;;;;;;15.55;3.40;;;;;;;27.62;49.99;99560.56;4997228;28;20053;-81
2022/09/16 11:29:52;;;;;;;19.80;4.47;;;;;;;27.68;49.54;99558.72;4995123;28;20045;-82
2022/09/16 11:32:55;;;;;;;7.05;3.15;;;;;;;27.87;49.04;99559.56;4992444;28;20045;-82
2022/09/16 11:36:02;;;;;;;15.18;3.38;;;;;;;28.02;48.50;99555.72;4994291;28;20065;-82
2022/09/16 11:39:02;;;;;;;20.77;4.15;;;;;;;28.18;48.45;99551.13;4983689;28;20053;-81
2022/09/16 11:42:18;;;;;;;13.63;3.58;;;;;;;28.17;47.31;99546.78;4991152;28;20045;-82
2022/09/16 11:45:15;;;;;;;16.55;3.45;;;;;;;28.19;47.53;99545.06;4976811;28;20045;-83
2022/09/16 11:48:31;;;;;;;11.77;3.28;;;;;;;28.21;48.30;99539.00;4976859;28;20046;-82
2022/09/16 11:51:50;;;;;;;16.35;3.95;;;;;;;28.49;47.69;99543.41;4976848;28;20061;-82
2022/09/16 11:54:53;;;;;;;11.65;2.28;;;;;;;28.69;46.77;99540.91;4976462;28;20457;-82
2022/09/16 11:57:43;;;;;;;20.35;3.58;;;;;;;28.73;46.89;99537.97;4978218;28;20046;-82
2022/09/16 12:00:32;;;;;;;13.57;3.97;;;;;;;28.73;47.19;99527.56;4976402;28;20123;-82
2022/09/16 12:03:39;;;;;;;11.13;2.50;;;;;;;28.66;46.92;99527.84;4998214;28;20053;-81
2022/09/16 12:06:29;;;;;;;13.10;3.60;;;;;;;28.62;46.76;99516.03;4990998;28;20513;-81
2022/09/16 12:09:25;;;;;;;17.15;2.65;;;;;;;28.47;47.29;99518.69;4997713;28;20082;-82
2022/09/16 12:12:22;;;;;;;22.38;3.67;;;;;;;28.75;46.99;99510.31;4996473;28;20049;-80
2022/09/16 12:15:28;;;;;;;10.45;2.83;;;;;;;28.83;47.36;99511.53;4992319;28;20535;-80
2022/09/16 12:18:32;;;;;;;14.25;3.30;;;;;;;28.71;46.95;99510.41;4979497;28;20062;-80
2022/09/16 12:21:25;;;;;;;12.77;4.03;;;;;;;28.56;47.35;99492.72;4975830;28;20054;-80
2022/09/16 12:24:20;;;;;;;17.67;3.60;;;;;;;28.23;47.72;99489.00;4975653;28;20046;-80
2022/09/16 12:27:08;;;;;;;;;;;;;;;28.27;47.81;99481.22;4976004;28;20050;-80
2022/09/16 12:30:00;;;;;;;21.48;3.92;;;;;;;28.19;48.30;99480.75;4974416;28;19918;-80
2022/09/16 12:33:07;;;;;;;13.35;4.13;;;;;;;28.47;47.65;99475.94;4987702;28;20682;-81
2022/09/16 12:36:06;;;;;;;7.13;2.30;;;;;;;28.26;48.22;99474.84;4989669;28;20053;-81
2022/09/16 12:38:50;;;;;;;13.52;2.47;;;;;;;28.54;47.70;99461.66;4992849;28;20053;-81
2022/09/16 12:41:38;;;;;;;13.25;3.45;;;;;;;28.97;45.94;99462.50;5004403;28;20056;-79
2022/09/16 12:44:41;;;;;;;11.27;2.67;;;;;;;29.21;44.97;99458.53;4975018;28;20054;-78
2022/09/16 12:47:57;;;;;;;13.05;3.33;;;;;;;29.41;44.25;99446.78;4977581;28;20049;-79
2022/09/16 12:51:03;;;;;;;12.45;2.83;;;;;;;29.42;43.87;99448.34;4975022;28;20053;-79
2022/09/16 12:54:25;;;;;;;14.40;2.90;;;;;;;29.47;43.91;99441.31;4977019;28;20049;-79
2022/09/16 12:57:12;;;;;;;18.25;2.55;;;;;;;29.63;44.13;99441.69;4975095;28;20061;-78
2022/09/16 13:00:19;;;;;;;13.45;2.05;;;;;;;29.77;43.03;99437.41;4991673;28;20054;-78
2022/09/16 13:03:26;;;;;;;6.97;2.22;;;;;;;29.82;43.18;99442.34;4982324;28;20049;-78
2022/09/16 13:06:22;;;;;;;24.98;3.33;;;;;;;29.89;43.11;99444.03;4981710;28;20045;-77
2022/09/16 13:09:26;;;;;;;15.48;3.40;;;;;;;29.73;42.75;99436.81;4991716;28;20053;-79
2022/09/16 13:12:24;;;;;;;24.65;2.72;;;;;;;29.29;43.57;99420.53;4993840;28;20237;-79
2022/09/16 13:15:40;;;;;;;6.82;1.63;;;;;;;29.22;44.91;99434.09;4991246;28;20046;-78
2022/09/16 13:18:43;;;;;;;10.35;2.10;;;;;;;29.33;44.24;99420.38;4989751;28;20045;-79
2022/09/16 13:21:38;;;;;;;12.02;3.42;;;;;;;29.41;43.46;99421.56;4999648;28;20065;-79
2022/09/16 13:24:30;;;;;;;13.57;2.88;;;;;;;29.75;42.31;99418.28;4985727;28;20045;-78
2022/09/16 13:27:26;;;;;;;9.27;2.17;;;;;;;29.92;41.89;99420.69;4988583;28;20061;-78